sensor_id;sensor_type;location;lat;lon;timestamp;pressure;altitude;pressure_sealevel;temperature;humidity
75063;BME280;63981;51.052;13.754;2023-05-07T00:01:46;100815.53;;;10.29;81.00
75063;BME280;63981;51.052;13.754;2023-05-07T00:04:12;100819.00;;;10.30;80.49
75063;BME280;63981;51.052;13.754;2023-05-07T00:06:39;100771.69;;;9.80;81.73
75063;BME280;63981;51.052;13.754;2023-05-07T00:09:06;100823.00;;;9.88;82.74
75063;BME280;63981;51.052;13.754;2023-05-07T00:11:32;100728.16;;;9.41;82.11
75063;BME280;63981;51.052;13.754;2023-05-07T00:13:58;100831.34;;;10.29;82.29
75063;BME280;63981;51.052;13.754;2023-05-07T00:16:24;100711.19;;;9.46;82.21
75063;BME280;63981;51.052;13.754;2023-05-07T00:18:50;100825.63;;;10.37;81.42
75063;BME280;63981;51.052;13.754;2023-05-07T00:21:16;100818.88;;;10.16;82.34
75063;BME280;63981;51.052;13.754;2023-05-07T00:23:42;100816.47;;;10.11;82.22
75063;BME280;63981;51.052;13.754;2023-05-07T00:26:07;100818.75;;;10.01;82.54
75063;BME280;63981;51.052;13.754;2023-05-07T00:28:33;100821.47;;;10.00;82.57
75063;BME280;63981;51.052;13.754;2023-05-07T00:30:59;100830.75;;;9.91;83.07
75063;BME280;63981;51.052;13.754;2023-05-07T00:33:25;100827.97;;;10.10;82.28
75063;BME280;63981;51.052;13.754;2023-05-07T00:35:54;100820.22;;;10.07;82.40
75063;BME280;63981;51.052;13.754;2023-05-07T00:38:20;100814.50;;;10.32;81.68
75063;BME280;63981;51.052;13.754;2023-05-07T00:40:46;100820.09;;;10.57;80.95
75063;BME280;63981;51.052;13.754;2023-05-07T00:43:11;100821.69;;;10.28;81.68
75063;BME280;63981;51.052;13.754;2023-05-07T00:45:38;100822.19;;;10.03;81.91
75063;BME280;63981;51.052;13.754;2023-05-07T00:48:04;100764.66;;;9.96;81.53
75063;BME280;63981;51.052;13.754;2023-05-07T00:50:30;100773.59;;;10.25;80.27
75063;BME280;63981;51.052;13.754;2023-05-07T00:52:57;100790.22;;;10.10;80.87
75063;BME280;63981;51.052;13.754;2023-05-07T00:55:23;100818.09;;;10.14;81.63
75063;BME280;63981;51.052;13.754;2023-05-07T00:57:50;100813.06;;;10.42;80.19
75063;BME280;63981;51.052;13.754;2023-05-07T01:00:16;100814.13;;;10.38;80.24
75063;BME280;63981;51.052;13.754;2023-05-07T01:02:42;100780.28;;;9.83;81.00
75063;BME280;63981;51.052;13.754;2023-05-07T01:05:13;100805.84;;;9.81;81.34
75063;BME280;63981;51.052;13.754;2023-05-07T01:07:40;100810.09;;;9.99;81.29
75063;BME280;63981;51.052;13.754;2023-05-07T01:10:08;100822.94;;;9.90;81.71
75063;BME280;63981;51.052;13.754;2023-05-07T01:12:35;100818.09;;;9.98;81.37
75063;BME280;63981;51.052;13.754;2023-05-07T01:15:03;100820.50;;;10.18;79.84
75063;BME280;63981;51.052;13.754;2023-05-07T01:17:34;100743.56;;;9.64;80.77
75063;BME280;63981;51.052;13.754;2023-05-07T01:20:02;100789.28;;;9.95;80.72
75063;BME280;63981;51.052;13.754;2023-05-07T01:22:32;100811.47;;;10.07;80.44
75063;BME280;63981;51.052;13.754;2023-05-07T01:24:59;100833.44;;;10.39;79.95
75063;BME280;63981;51.052;13.754;2023-05-07T01:27:28;100833.22;;;10.10;80.49
75063;BME280;63981;51.052;13.754;2023-05-07T01:29:54;100826.59;;;10.03;80.58
75063;BME280;63981;51.052;13.754;2023-05-07T01:32:33;100810.84;;;9.86;81.30
75063;BME280;63981;51.052;13.754;2023-05-07T01:35:02;100827.84;;;9.96;80.89
75063;BME280;63981;51.052;13.754;2023-05-07T01:37:31;100836.00;;;9.91;81.33
75063;BME280;63981;51.052;13.754;2023-05-07T01:39:57;100829.91;;;9.91;80.77
75063;BME280;63981;51.052;13.754;2023-05-07T01:42:23;100824.19;;;9.83;81.13
75063;BME280;63981;51.052;13.754;2023-05-07T01:44:49;100831.59;;;9.92;81.05
75063;BME280;63981;51.052;13.754;2023-05-07T01:47:16;100841.97;;;10.11;80.53
75063;BME280;63981;51.052;13.754;2023-05-07T01:49:42;100837.72;;;10.08;80.37
75063;BME280;63981;51.052;13.754;2023-05-07T01:52:10;100797.59;;;9.87;80.66
75063;BME280;63981;51.052;13.754;2023-05-07T01:54:37;100838.72;;;10.23;80.14
75063;BME280;63981;51.052;13.754;2023-05-07T01:57:03;100777.31;;;10.05;79.67
75063;BME280;63981;51.052;13.754;2023-05-07T01:59:29;100785.13;;;10.07;78.91
75063;BME280;63981;51.052;13.754;2023-05-07T02:01:56;100838.13;;;10.00;79.45
75063;BME280;63981;51.052;13.754;2023-05-07T02:04:23;100836.03;;;10.07;79.60
75063;BME280;63981;51.052;13.754;2023-05-07T02:06:50;100827.31;;;10.38;79.05
75063;BME280;63981;51.052;13.754;2023-05-07T02:09:16;100834.06;;;9.95;79.39
75063;BME280;63981;51.052;13.754;2023-05-07T02:11:44;100823.34;;;10.31;78.44
75063;BME280;63981;51.052;13.754;2023-05-07T02:14:10;100833.69;;;10.50;77.76
75063;BME280;63981;51.052;13.754;2023-05-07T02:16:36;100820.81;;;10.12;78.95
75063;BME280;63981;51.052;13.754;2023-05-07T02:19:02;100816.56;;;9.94;79.04
75063;BME280;63981;51.052;13.754;2023-05-07T02:21:28;100825.16;;;10.13;79.27
75063;BME280;63981;51.052;13.754;2023-05-07T02:23:53;100834.91;;;10.11;79.18
75063;BME280;63981;51.052;13.754;2023-05-07T02:26:20;100803.72;;;9.88;79.13
75063;BME280;63981;51.052;13.754;2023-05-07T02:28:47;100845.47;;;10.11;79.46
75063;BME280;63981;51.052;13.754;2023-05-07T02:31:13;100844.97;;;10.04;79.71
75063;BME280;63981;51.052;13.754;2023-05-07T02:33:39;100851.31;;;10.33;78.62
75063;BME280;63981;51.052;13.754;2023-05-07T02:36:08;100843.75;;;10.10;78.20
75063;BME280;63981;51.052;13.754;2023-05-07T02:38:38;100835.19;;;9.73;79.48
75063;BME280;63981;51.052;13.754;2023-05-07T02:41:04;100852.75;;;9.90;79.77
75063;BME280;63981;51.052;13.754;2023-05-07T02:43:30;100850.63;;;9.97;79.58
75063;BME280;63981;51.052;13.754;2023-05-07T02:46:03;100845.44;;;9.95;79.77
75063;BME280;63981;51.052;13.754;2023-05-07T02:48:29;100849.31;;;9.88;80.33
75063;BME280;63981;51.052;13.754;2023-05-07T02:50:55;100846.13;;;9.99;80.34
75063;BME280;63981;51.052;13.754;2023-05-07T02:53:21;100839.97;;;10.16;79.65
75063;BME280;63981;51.052;13.754;2023-05-07T02:55:47;100848.00;;;9.97;80.13
75063;BME280;63981;51.052;13.754;2023-05-07T02:58:13;100837.25;;;9.84;80.57
75063;BME280;63981;51.052;13.754;2023-05-07T03:00:40;100851.47;;;9.97;79.60
75063;BME280;63981;51.052;13.754;2023-05-07T03:03:32;100854.66;;;10.04;80.11
75063;BME280;63981;51.052;13.754;2023-05-07T03:05:58;100854.22;;;10.12;79.95
75063;BME280;63981;51.052;13.754;2023-05-07T03:08:24;100852.81;;;9.89;80.17
75063;BME280;63981;51.052;13.754;2023-05-07T03:10:50;100852.06;;;10.02;79.62
75063;BME280;63981;51.052;13.754;2023-05-07T03:13:16;100808.03;;;9.89;79.47
75063;BME280;63981;51.052;13.754;2023-05-07T03:15:42;100785.03;;;9.77;78.81
75063;BME280;63981;51.052;13.754;2023-05-07T03:18:08;100842.56;;;10.00;79.02
75063;BME280;63981;51.052;13.754;2023-05-07T03:20:34;100851.81;;;9.91;79.35
75063;BME280;63981;51.052;13.754;2023-05-07T03:23:00;100846.41;;;10.10;78.87
75063;BME280;63981;51.052;13.754;2023-05-07T03:25:26;100846.22;;;10.13;79.08
75063;BME280;63981;51.052;13.754;2023-05-07T03:27:52;100854.66;;;9.87;79.02
75063;BME280;63981;51.052;13.754;2023-05-07T03:30:21;100861.28;;;9.78;79.62
75063;BME280;63981;51.052;13.754;2023-05-07T03:32:47;100861.06;;;9.98;79.48
75063;BME280;63981;51.052;13.754;2023-05-07T03:35:13;100831.25;;;9.98;79.08
75063;BME280;63981;51.052;13.754;2023-05-07T03:37:40;100781.59;;;9.26;80.13
75063;BME280;63981;51.052;13.754;2023-05-07T03:40:07;100859.75;;;9.74;80.33
75063;BME280;63981;51.052;13.754;2023-05-07T03:42:42;100864.78;;;9.61;80.89
75063;BME280;63981;51.052;13.754;2023-05-07T03:45:09;100810.31;;;9.46;80.16
75063;BME280;63981;51.052;13.754;2023-05-07T03:47:35;100862.59;;;10.02;79.27
75063;BME280;63981;51.052;13.754;2023-05-07T03:50:02;100859.72;;;9.91;79.39
75063;BME280;63981;51.052;13.754;2023-05-07T03:52:28;100864.16;;;9.73;80.14
75063;BME280;63981;51.052;13.754;2023-05-07T03:54:57;100864.34;;;9.19;82.26
75063;BME280;63981;51.052;13.754;2023-05-07T03:57:23;100875.31;;;9.09;83.34
75063;BME280;63981;51.052;13.754;2023-05-07T03:59:49;100871.41;;;9.18;82.96
75063;BME280;63981;51.052;13.754;2023-05-07T04:02:15;100841.81;;;8.96;83.42
75063;BME280;63981;51.052;13.754;2023-05-07T04:04:42;100874.25;;;9.13;83.19
75063;BME280;63981;51.052;13.754;2023-05-07T04:07:09;100878.44;;;9.18;83.13
75063;BME280;63981;51.052;13.754;2023-05-07T04:09:40;100869.47;;;9.39;83.03
75063;BME280;63981;51.052;13.754;2023-05-07T04:12:05;100874.47;;;9.61;82.30
75063;BME280;63981;51.052;13.754;2023-05-07T04:14:34;100827.97;;;9.09;82.29
75063;BME280;63981;51.052;13.754;2023-05-07T04:17:00;100869.50;;;9.72;81.18
75063;BME280;63981;51.052;13.754;2023-05-07T04:19:27;100872.06;;;9.73;81.07
75063;BME280;63981;51.052;13.754;2023-05-07T04:21:54;100876.28;;;9.93;80.37
75063;BME280;63981;51.052;13.754;2023-05-07T04:24:21;100875.88;;;10.34;78.28
75063;BME280;63981;51.052;13.754;2023-05-07T04:26:47;100871.81;;;10.11;79.12
75063;BME280;63981;51.052;13.754;2023-05-07T04:29:13;100872.81;;;10.09;79.05
75063;BME280;63981;51.052;13.754;2023-05-07T04:31:38;100883.75;;;10.01;79.22
75063;BME280;63981;51.052;13.754;2023-05-07T04:34:04;100885.97;;;9.93;79.87
75063;BME280;63981;51.052;13.754;2023-05-07T04:36:31;100895.66;;;9.75;79.73
75063;BME280;63981;51.052;13.754;2023-05-07T04:39:02;100844.69;;;9.93;78.91
75063;BME280;63981;51.052;13.754;2023-05-07T04:41:28;100891.34;;;10.56;78.17
75063;BME280;63981;51.052;13.754;2023-05-07T04:43:55;100903.34;;;10.46;77.81
75063;BME280;63981;51.052;13.754;2023-05-07T04:46:23;100903.84;;;10.03;78.15
75063;BME280;63981;51.052;13.754;2023-05-07T04:48:51;100852.25;;;9.66;78.31
75063;BME280;63981;51.052;13.754;2023-05-07T04:51:17;100913.16;;;9.93;79.32
75063;BME280;63981;51.052;13.754;2023-05-07T04:53:43;100916.31;;;10.33;78.12
75063;BME280;63981;51.052;13.754;2023-05-07T04:56:09;100913.00;;;10.12;77.81
75063;BME280;63981;51.052;13.754;2023-05-07T04:58:39;100913.47;;;10.69;76.97
75063;BME280;63981;51.052;13.754;2023-05-07T05:01:06;100916.34;;;10.96;75.64
75063;BME280;63981;51.052;13.754;2023-05-07T05:03:32;100921.84;;;10.91;76.17
75063;BME280;63981;51.052;13.754;2023-05-07T05:05:58;100924.25;;;10.80;75.75
75063;BME280;63981;51.052;13.754;2023-05-07T05:08:29;100849.78;;;10.29;75.19
75063;BME280;63981;51.052;13.754;2023-05-07T05:10:56;100931.19;;;10.34;76.36
75063;BME280;63981;51.052;13.754;2023-05-07T05:13:22;100810.50;;;10.25;75.43
75063;BME280;63981;51.052;13.754;2023-05-07T05:15:48;100886.22;;;10.37;75.77
75063;BME280;63981;51.052;13.754;2023-05-07T05:18:14;100920.16;;;10.90;75.60
75063;BME280;63981;51.052;13.754;2023-05-07T05:20:40;100930.97;;;10.54;74.94
75063;BME280;63981;51.052;13.754;2023-05-07T05:23:07;100911.66;;;10.38;76.05
75063;BME280;63981;51.052;13.754;2023-05-07T05:25:33;100923.97;;;10.53;75.06
75063;BME280;63981;51.052;13.754;2023-05-07T05:28:00;100930.00;;;10.24;76.28
75063;BME280;63981;51.052;13.754;2023-05-07T05:30:27;100926.63;;;9.87;77.53
75063;BME280;63981;51.052;13.754;2023-05-07T05:32:53;100935.97;;;10.10;76.91
75063;BME280;63981;51.052;13.754;2023-05-07T05:35:19;100942.34;;;10.06;77.46
75063;BME280;63981;51.052;13.754;2023-05-07T05:37:45;100947.13;;;10.48;77.10
75063;BME280;63981;51.052;13.754;2023-05-07T05:40:11;100944.41;;;10.17;76.76
75063;BME280;63981;51.052;13.754;2023-05-07T05:42:37;100950.31;;;10.38;76.59
75063;BME280;63981;51.052;13.754;2023-05-07T05:45:03;100946.44;;;10.45;77.26
75063;BME280;63981;51.052;13.754;2023-05-07T05:47:31;100949.41;;;10.54;76.07
75063;BME280;63981;51.052;13.754;2023-05-07T05:49:57;100879.44;;;10.33;75.87
75063;BME280;63981;51.052;13.754;2023-05-07T05:52:23;100946.94;;;10.36;75.97
75063;BME280;63981;51.052;13.754;2023-05-07T05:54:53;100948.91;;;9.97;76.81
75063;BME280;63981;51.052;13.754;2023-05-07T05:57:19;100962.91;;;10.15;77.24
75063;BME280;63981;51.052;13.754;2023-05-07T05:59:45;100969.53;;;10.40;75.97
75063;BME280;63981;51.052;13.754;2023-05-07T06:02:13;100965.94;;;10.58;75.70
75063;BME280;63981;51.052;13.754;2023-05-07T06:04:38;100974.13;;;10.69;75.42
75063;BME280;63981;51.052;13.754;2023-05-07T06:07:04;100966.59;;;10.61;75.33
75063;BME280;63981;51.052;13.754;2023-05-07T06:09:30;100971.44;;;10.53;74.37
75063;BME280;63981;51.052;13.754;2023-05-07T06:11:56;100977.81;;;10.49;74.71
75063;BME280;63981;51.052;13.754;2023-05-07T06:14:22;100974.44;;;10.79;73.49
75063;BME280;63981;51.052;13.754;2023-05-07T06:16:48;100980.28;;;10.52;74.25
75063;BME280;63981;51.052;13.754;2023-05-07T06:19:14;100991.94;;;10.48;74.36
75063;BME280;63981;51.052;13.754;2023-05-07T06:21:44;100985.63;;;10.51;74.79
75063;BME280;63981;51.052;13.754;2023-05-07T06:24:10;100988.91;;;10.56;74.84
75063;BME280;63981;51.052;13.754;2023-05-07T06:26:37;100994.38;;;10.36;74.74
75063;BME280;63981;51.052;13.754;2023-05-07T06:29:03;100993.09;;;11.07;71.82
75063;BME280;63981;51.052;13.754;2023-05-07T06:31:30;100982.41;;;11.40;71.10
75063;BME280;63981;51.052;13.754;2023-05-07T06:34:05;100964.16;;;11.21;70.88
75063;BME280;63981;51.052;13.754;2023-05-07T06:36:36;100988.22;;;11.15;71.61
75063;BME280;63981;51.052;13.754;2023-05-07T06:39:24;100961.81;;;11.31;69.70
75063;BME280;63981;51.052;13.754;2023-05-07T06:41:51;100988.91;;;11.19;70.72
75063;BME280;63981;51.052;13.754;2023-05-07T06:44:25;100939.97;;;10.66;71.29
75063;BME280;63981;51.052;13.754;2023-05-07T06:47:19;100994.94;;;10.89;72.51
75063;BME280;63981;51.052;13.754;2023-05-07T06:49:50;100933.84;;;10.66;71.93
75063;BME280;63981;51.052;13.754;2023-05-07T06:52:17;101006.22;;;10.44;71.96
75063;BME280;63981;51.052;13.754;2023-05-07T06:54:44;101011.50;;;10.44;73.21
75063;BME280;63981;51.052;13.754;2023-05-07T06:57:11;101005.75;;;10.36;73.50
75063;BME280;63981;51.052;13.754;2023-05-07T06:59:37;100979.50;;;10.00;73.61
75063;BME280;63981;51.052;13.754;2023-05-07T07:02:02;101005.84;;;10.34;73.88
75063;BME280;63981;51.052;13.754;2023-05-07T07:04:28;101008.22;;;10.39;73.72
75063;BME280;63981;51.052;13.754;2023-05-07T07:07:01;101015.63;;;10.81;73.13
75063;BME280;63981;51.052;13.754;2023-05-07T07:09:28;101005.66;;;10.55;73.77
75063;BME280;63981;51.052;13.754;2023-05-07T07:11:54;101004.06;;;10.18;75.06
75063;BME280;63981;51.052;13.754;2023-05-07T07:14:20;101006.31;;;10.43;73.74
75063;BME280;63981;51.052;13.754;2023-05-07T07:16:49;100996.50;;;10.29;74.73
75063;BME280;63981;51.052;13.754;2023-05-07T07:19:17;101011.16;;;10.66;74.15
75063;BME280;63981;51.052;13.754;2023-05-07T07:21:46;101006.00;;;10.80;73.70
75063;BME280;63981;51.052;13.754;2023-05-07T07:24:13;101009.34;;;10.84;73.71
75063;BME280;63981;51.052;13.754;2023-05-07T07:26:45;101017.06;;;10.87;73.63
75063;BME280;63981;51.052;13.754;2023-05-07T07:29:12;100954.38;;;10.76;71.16
75063;BME280;63981;51.052;13.754;2023-05-07T07:31:39;101022.81;;;10.95;70.67
75063;BME280;63981;51.052;13.754;2023-05-07T07:34:06;101017.25;;;10.68;70.95
75063;BME280;63981;51.052;13.754;2023-05-07T07:36:32;101018.50;;;10.77;70.74
75063;BME280;63981;51.052;13.754;2023-05-07T07:38:58;101022.81;;;10.95;69.84
75063;BME280;63981;51.052;13.754;2023-05-07T07:41:24;101031.78;;;10.91;70.46
75063;BME280;63981;51.052;13.754;2023-05-07T07:43:51;101005.31;;;10.11;71.86
75063;BME280;63981;51.052;13.754;2023-05-07T07:46:19;101025.28;;;10.15;72.65
75063;BME280;63981;51.052;13.754;2023-05-07T07:48:45;101030.75;;;10.29;71.96
75063;BME280;63981;51.052;13.754;2023-05-07T07:51:11;101035.75;;;10.33;72.56
75063;BME280;63981;51.052;13.754;2023-05-07T07:53:37;101035.44;;;10.40;72.23
75063;BME280;63981;51.052;13.754;2023-05-07T07:56:04;100919.53;;;10.22;71.19
75063;BME280;63981;51.052;13.754;2023-05-07T07:58:32;101032.69;;;11.07;71.10
75063;BME280;63981;51.052;13.754;2023-05-07T08:00:58;100949.69;;;9.99;70.91
75063;BME280;63981;51.052;13.754;2023-05-07T08:03:25;101024.50;;;10.13;72.56
75063;BME280;63981;51.052;13.754;2023-05-07T08:05:56;101037.63;;;10.64;71.52
75063;BME280;63981;51.052;13.754;2023-05-07T08:08:24;101044.13;;;10.75;71.47
75063;BME280;63981;51.052;13.754;2023-05-07T08:10:53;101045.19;;;10.55;71.35
75063;BME280;63981;51.052;13.754;2023-05-07T08:13:26;101054.88;;;10.20;72.00
75063;BME280;63981;51.052;13.754;2023-05-07T08:15:52;101000.56;;;9.48;73.82
75063;BME280;63981;51.052;13.754;2023-05-07T08:18:18;101049.63;;;10.37;71.96
75063;BME280;63981;51.052;13.754;2023-05-07T08:20:44;101048.72;;;10.71;71.96
75063;BME280;63981;51.052;13.754;2023-05-07T08:23:14;101051.72;;;11.28;70.12
75063;BME280;63981;51.052;13.754;2023-05-07T08:25:41;101047.13;;;11.47;68.94
75063;BME280;63981;51.052;13.754;2023-05-07T08:28:08;100999.69;;;11.30;69.06
75063;BME280;63981;51.052;13.754;2023-05-07T08:30:34;101057.69;;;11.47;68.66
75063;BME280;63981;51.052;13.754;2023-05-07T08:33:00;101061.88;;;10.38;70.73
75063;BME280;63981;51.052;13.754;2023-05-07T08:35:26;101033.25;;;10.81;70.14
75063;BME280;63981;51.052;13.754;2023-05-07T08:37:53;101054.47;;;11.27;69.67
75063;BME280;63981;51.052;13.754;2023-05-07T08:40:25;101042.97;;;11.89;68.50
75063;BME280;63981;51.052;13.754;2023-05-07T08:42:53;101047.91;;;11.34;68.36
75063;BME280;63981;51.052;13.754;2023-05-07T08:45:19;101051.44;;;11.80;67.05
75063;BME280;63981;51.052;13.754;2023-05-07T08:47:51;101056.66;;;11.18;67.31
75063;BME280;63981;51.052;13.754;2023-05-07T08:50:20;101044.59;;;11.92;67.10
75063;BME280;63981;51.052;13.754;2023-05-07T08:52:47;101012.25;;;11.57;66.50
75063;BME280;63981;51.052;13.754;2023-05-07T08:55:16;101054.63;;;12.01;66.43
75063;BME280;63981;51.052;13.754;2023-05-07T08:57:43;101065.31;;;11.84;65.32
75063;BME280;63981;51.052;13.754;2023-05-07T09:00:10;101009.69;;;11.25;66.99
75063;BME280;63981;51.052;13.754;2023-05-07T09:02:37;101068.19;;;11.95;66.77
75063;BME280;63981;51.052;13.754;2023-05-07T09:05:05;101052.38;;;11.79;66.41
75063;BME280;63981;51.052;13.754;2023-05-07T09:07:31;101081.16;;;11.99;66.58
75063;BME280;63981;51.052;13.754;2023-05-07T09:10:01;101074.34;;;11.64;66.78
75063;BME280;63981;51.052;13.754;2023-05-07T09:12:28;100997.97;;;11.91;66.00
75063;BME280;63981;51.052;13.754;2023-05-07T09:14:53;101022.03;;;12.45;64.36
75063;BME280;63981;51.052;13.754;2023-05-07T09:17:20;101066.75;;;12.33;64.46
75063;BME280;63981;51.052;13.754;2023-05-07T09:19:45;101002.94;;;12.82;62.73
75063;BME280;63981;51.052;13.754;2023-05-07T09:22:13;101078.34;;;12.89;62.97
75063;BME280;63981;51.052;13.754;2023-05-07T09:24:49;101078.50;;;12.44;63.49
75063;BME280;63981;51.052;13.754;2023-05-07T09:27:17;101085.25;;;11.89;65.51
75063;BME280;63981;51.052;13.754;2023-05-07T09:29:45;101009.09;;;12.26;64.28
75063;BME280;63981;51.052;13.754;2023-05-07T09:32:12;101012.84;;;12.22;63.95
75063;BME280;63981;51.052;13.754;2023-05-07T09:34:41;101090.59;;;12.62;63.97
75063;BME280;63981;51.052;13.754;2023-05-07T09:37:07;101047.16;;;12.07;64.85
75063;BME280;63981;51.052;13.754;2023-05-07T09:39:43;101079.81;;;12.06;65.43
75063;BME280;63981;51.052;13.754;2023-05-07T09:42:11;101047.94;;;11.64;65.73
75063;BME280;63981;51.052;13.754;2023-05-07T09:44:39;101082.25;;;11.95;65.22
75063;BME280;63981;51.052;13.754;2023-05-07T09:47:11;101054.59;;;11.87;65.30
75063;BME280;63981;51.052;13.754;2023-05-07T09:49:44;101076.41;;;12.63;63.38
75063;BME280;63981;51.052;13.754;2023-05-07T09:52:16;101086.63;;;12.55;63.75
75063;BME280;63981;51.052;13.754;2023-05-07T09:54:46;101073.72;;;13.75;61.88
75063;BME280;63981;51.052;13.754;2023-05-07T09:57:15;101074.63;;;14.79;57.50
75063;BME280;63981;51.052;13.754;2023-05-07T09:59:45;101071.84;;;14.42;55.87
75063;BME280;63981;51.052;13.754;2023-05-07T10:02:15;101039.38;;;13.20;59.52
75063;BME280;63981;51.052;13.754;2023-05-07T10:04:50;101089.00;;;13.31;60.60
75063;BME280;63981;51.052;13.754;2023-05-07T10:07:21;101094.47;;;12.70;62.78
75063;BME280;63981;51.052;13.754;2023-05-07T10:09:50;101095.31;;;12.43;63.89
75063;BME280;63981;51.052;13.754;2023-05-07T10:12:27;101086.44;;;12.86;63.36
75063;BME280;63981;51.052;13.754;2023-05-07T10:14:54;101082.84;;;12.87;62.79
75063;BME280;63981;51.052;13.754;2023-05-07T10:17:23;101087.06;;;13.74;61.07
75063;BME280;63981;51.052;13.754;2023-05-07T10:19:49;101079.66;;;13.79;59.53
75063;BME280;63981;51.052;13.754;2023-05-07T10:22:17;101078.50;;;14.10;58.59
75063;BME280;63981;51.052;13.754;2023-05-07T10:24:45;101096.72;;;12.04;62.88
75063;BME280;63981;51.052;13.754;2023-05-07T10:27:17;101087.59;;;12.54;63.28
75063;BME280;63981;51.052;13.754;2023-05-07T10:32:45;101073.66;;;13.63;60.73
75063;BME280;63981;51.052;13.754;2023-05-07T10:35:26;101072.56;;;13.79;59.76
75063;BME280;63981;51.052;13.754;2023-05-07T10:37:55;101075.63;;;13.46;59.98
75063;BME280;63981;51.052;13.754;2023-05-07T10:40:24;101082.84;;;12.87;60.00
75063;BME280;63981;51.052;13.754;2023-05-07T10:42:58;101086.09;;;12.92;61.02
75063;BME280;63981;51.052;13.754;2023-05-07T10:45:33;101079.97;;;13.47;59.87
75063;BME280;63981;51.052;13.754;2023-05-07T10:50:35;101066.38;;;14.45;57.22
75063;BME280;63981;51.052;13.754;2023-05-07T10:53:20;101061.56;;;14.89;55.95
75063;BME280;63981;51.052;13.754;2023-05-07T10:58:47;101054.47;;;15.62;52.90
75063;BME280;63981;51.052;13.754;2023-05-07T11:01:55;101056.97;;;16.23;51.50
75063;BME280;63981;51.052;13.754;2023-05-07T11:04:32;101009.25;;;15.39;51.95
75063;BME280;63981;51.052;13.754;2023-05-07T11:07:25;101057.75;;;16.01;52.04
75063;BME280;63981;51.052;13.754;2023-05-07T11:09:55;101045.03;;;15.46;52.30
75063;BME280;63981;51.052;13.754;2023-05-07T11:15:09;101055.81;;;14.82;54.03
75063;BME280;63981;51.052;13.754;2023-05-07T11:17:53;101063.75;;;14.31;55.70
75063;BME280;63981;51.052;13.754;2023-05-07T11:20:20;101068.94;;;13.26;57.75
75063;BME280;63981;51.052;13.754;2023-05-07T11:22:53;100999.41;;;13.77;57.04
75063;BME280;63981;51.052;13.754;2023-05-07T11:25:35;101061.91;;;14.59;55.92
75063;BME280;63981;51.052;13.754;2023-05-07T11:28:16;101058.16;;;14.23;57.49
75063;BME280;63981;51.052;13.754;2023-05-07T11:30:53;101002.34;;;14.37;55.67
75063;BME280;63981;51.052;13.754;2023-05-07T11:33:20;101061.25;;;14.68;55.14
75063;BME280;63981;51.052;13.754;2023-05-07T11:35:50;101052.38;;;14.16;56.25
75063;BME280;63981;51.052;13.754;2023-05-07T11:38:18;101053.25;;;14.17;56.75
75063;BME280;63981;51.052;13.754;2023-05-07T11:40:56;101058.72;;;14.54;55.54
75063;BME280;63981;51.052;13.754;2023-05-07T11:43:22;101064.59;;;14.19;56.77
75063;BME280;63981;51.052;13.754;2023-05-07T11:45:49;101058.94;;;14.63;55.77
75063;BME280;63981;51.052;13.754;2023-05-07T11:48:16;101063.56;;;14.34;56.05
75063;BME280;63981;51.052;13.754;2023-05-07T11:53:28;101052.00;;;14.35;56.96
75063;BME280;63981;51.052;13.754;2023-05-07T11:56:00;101034.84;;;14.54;55.08
75063;BME280;63981;51.052;13.754;2023-05-07T11:58:31;101017.19;;;14.40;55.93
75063;BME280;63981;51.052;13.754;2023-05-07T12:00:57;101063.69;;;14.71;55.94
75063;BME280;63981;51.052;13.754;2023-05-07T12:03:23;101003.63;;;14.44;55.59
75063;BME280;63981;51.052;13.754;2023-05-07T12:05:48;101061.88;;;15.33;53.76
75063;BME280;63981;51.052;13.754;2023-05-07T12:08:15;101042.84;;;15.03;54.36
75063;BME280;63981;51.052;13.754;2023-05-07T12:10:42;101064.53;;;14.84;55.04
75063;BME280;63981;51.052;13.754;2023-05-07T12:13:21;101065.75;;;15.17;54.73
75063;BME280;63981;51.052;13.754;2023-05-07T12:15:58;101062.09;;;15.67;54.43
75063;BME280;63981;51.052;13.754;2023-05-07T12:18:29;101059.38;;;15.43;53.51
75063;BME280;63981;51.052;13.754;2023-05-07T12:20:56;101062.66;;;15.47;54.36
75063;BME280;63981;51.052;13.754;2023-05-07T12:23:22;101067.00;;;15.48;53.41
75063;BME280;63981;51.052;13.754;2023-05-07T12:25:49;101063.41;;;15.25;53.95
75063;BME280;63981;51.052;13.754;2023-05-07T12:28:15;101034.47;;;14.07;57.13
75063;BME280;63981;51.052;13.754;2023-05-07T12:30:48;101069.31;;;14.54;57.24
75063;BME280;63981;51.052;13.754;2023-05-07T12:33:18;101071.53;;;14.98;55.70
75063;BME280;63981;51.052;13.754;2023-05-07T12:35:47;101083.00;;;15.72;53.80
75063;BME280;63981;51.052;13.754;2023-05-07T12:38:15;101079.53;;;15.22;54.03
75063;BME280;63981;51.052;13.754;2023-05-07T12:40:54;101075.06;;;15.22;54.11
75063;BME280;63981;51.052;13.754;2023-05-07T12:43:23;101079.97;;;15.28;54.78
75063;BME280;63981;51.052;13.754;2023-05-07T12:45:51;101081.47;;;15.07;55.08
75063;BME280;63981;51.052;13.754;2023-05-07T12:48:17;101024.41;;;15.25;54.04
75063;BME280;63981;51.052;13.754;2023-05-07T12:50:44;101042.34;;;15.82;53.06
75063;BME280;63981;51.052;13.754;2023-05-07T12:53:11;101055.69;;;18.05;47.91
75063;BME280;63981;51.052;13.754;2023-05-07T12:55:41;101061.16;;;18.96;45.45
75063;BME280;63981;51.052;13.754;2023-05-07T12:58:08;101016.56;;;17.73;44.91
75063;BME280;63981;51.052;13.754;2023-05-07T13:00:39;101051.72;;;18.41;46.68
75063;BME280;63981;51.052;13.754;2023-05-07T13:03:06;101055.31;;;17.45;48.40